sensor_id;sensor_type;location;lat;lon;timestamp;temperature;humidity
62583;DHT22;48641;51.676;5.808;2023-04-29T00:00:20;15.70;64.90
62583;DHT22;48641;51.676;5.808;2023-04-29T00:02:45;15.70;63.90
62583;DHT22;48641;51.676;5.808;2023-04-29T00:05:11;15.70;63.90
62583;DHT22;48641;51.676;5.808;2023-04-29T00:07:37;15.70;63.90
62583;DHT22;48641;51.676;5.808;2023-04-29T00:10:03;15.70;63.90
62583;DHT22;48641;51.676;5.808;2023-04-29T00:12:29;15.70;63.90
62583;DHT22;48641;51.676;5.808;2023-04-29T00:14:56;15.60;63.80
62583;DHT22;48641;51.676;5.808;2023-04-29T00:17:22;15.70;63.80
62583;DHT22;48641;51.676;5.808;2023-04-29T00:19:47;15.70;63.80
62583;DHT22;48641;51.676;5.808;2023-04-29T00:22:13;15.70;63.80
62583;DHT22;48641;51.676;5.808;2023-04-29T00:24:38;15.60;63.80
62583;DHT22;48641;51.676;5.808;2023-04-29T00:27:04;15.70;63.90
62583;DHT22;48641;51.676;5.808;2023-04-29T00:29:30;15.70;63.90
62583;DHT22;48641;51.676;5.808;2023-04-29T00:31:56;15.70;63.90
62583;DHT22;48641;51.676;5.808;2023-04-29T00:34:22;15.70;63.90
62583;DHT22;48641;51.676;5.808;2023-04-29T00:36:48;15.60;63.80
62583;DHT22;48641;51.676;5.808;2023-04-29T00:39:13;15.60;63.70
62583;DHT22;48641;51.676;5.808;2023-04-29T00:41:39;15.70;63.80
62583;DHT22;48641;51.676;5.808;2023-04-29T00:44:05;15.70;63.80
62583;DHT22;48641;51.676;5.808;2023-04-29T00:46:32;15.60;63.70
62583;DHT22;48641;51.676;5.808;2023-04-29T00:48:57;15.60;63.70
62583;DHT22;48641;51.676;5.808;2023-04-29T00:51:23;15.60;63.70
62583;DHT22;48641;51.676;5.808;2023-04-29T00:53:49;15.60;63.70
62583;DHT22;48641;51.676;5.808;2023-04-29T00:56:14;15.60;63.70
62583;DHT22;48641;51.676;5.808;2023-04-29T00:58:42;15.70;63.70
62583;DHT22;48641;51.676;5.808;2023-04-29T01:01:17;15.60;63.60
62583;DHT22;48641;51.676;5.808;2023-04-29T01:03:44;15.60;63.60
62583;DHT22;48641;51.676;5.808;2023-04-29T01:06:22;15.70;63.70
62583;DHT22;48641;51.676;5.808;2023-04-29T01:09:28;15.60;63.60
62583;DHT22;48641;51.676;5.808;2023-04-29T01:14:44;15.60;63.60
62583;DHT22;48641;51.676;5.808;2023-04-29T01:17:17;15.60;63.70
62583;DHT22;48641;51.676;5.808;2023-04-29T01:19:47;15.60;63.70
62583;DHT22;48641;51.676;5.808;2023-04-29T01:22:15;15.60;63.70
62583;DHT22;48641;51.676;5.808;2023-04-29T01:24:42;15.60;63.70
62583;DHT22;48641;51.676;5.808;2023-04-29T01:27:32;15.60;63.70
62583;DHT22;48641;51.676;5.808;2023-04-29T01:32:45;15.60;63.70
62583;DHT22;48641;51.676;5.808;2023-04-29T01:41:05;15.60;63.60
62583;DHT22;48641;51.676;5.808;2023-04-29T01:43:35;15.60;63.70
62583;DHT22;48641;51.676;5.808;2023-04-29T01:46:03;15.60;63.70
62583;DHT22;48641;51.676;5.808;2023-04-29T01:48:29;15.60;63.70
62583;DHT22;48641;51.676;5.808;2023-04-29T01:50:55;15.60;63.70
62583;DHT22;48641;51.676;5.808;2023-04-29T01:53:21;15.60;63.60
62583;DHT22;48641;51.676;5.808;2023-04-29T01:55:47;15.60;63.60
62583;DHT22;48641;51.676;5.808;2023-04-29T01:58:13;15.60;63.60
62583;DHT22;48641;51.676;5.808;2023-04-29T02:00:38;15.60;63.60
62583;DHT22;48641;51.676;5.808;2023-04-29T02:03:04;15.60;63.50
62583;DHT22;48641;51.676;5.808;2023-04-29T02:05:30;15.60;63.50
62583;DHT22;48641;51.676;5.808;2023-04-29T02:07:58;15.60;63.50
62583;DHT22;48641;51.676;5.808;2023-04-29T02:10:25;15.60;63.50
62583;DHT22;48641;51.676;5.808;2023-04-29T02:12:50;15.60;63.50
62583;DHT22;48641;51.676;5.808;2023-04-29T02:15:17;15.60;63.50
62583;DHT22;48641;51.676;5.808;2023-04-29T02:17:43;15.60;63.50
62583;DHT22;48641;51.676;5.808;2023-04-29T02:20:08;15.60;63.50
62583;DHT22;48641;51.676;5.808;2023-04-29T02:22:35;15.60;63.50
62583;DHT22;48641;51.676;5.808;2023-04-29T02:25:00;15.60;63.50
62583;DHT22;48641;51.676;5.808;2023-04-29T02:27:26;15.60;63.40
62583;DHT22;48641;51.676;5.808;2023-04-29T02:29:51;15.60;63.50
62583;DHT22;48641;51.676;5.808;2023-04-29T02:32:17;15.60;63.40
62583;DHT22;48641;51.676;5.808;2023-04-29T02:34:45;15.60;63.40
62583;DHT22;48641;51.676;5.808;2023-04-29T02:37:11;15.60;63.40
62583;DHT22;48641;51.676;5.808;2023-04-29T02:39:36;15.60;63.40
62583;DHT22;48641;51.676;5.808;2023-04-29T02:42:02;15.60;63.40
62583;DHT22;48641;51.676;5.808;2023-04-29T02:44:28;15.60;63.40
62583;DHT22;48641;51.676;5.808;2023-04-29T02:46:53;15.60;63.40
62583;DHT22;48641;51.676;5.808;2023-04-29T02:49:19;15.60;63.40
62583;DHT22;48641;51.676;5.808;2023-04-29T02:51:44;15.60;63.40
62583;DHT22;48641;51.676;5.808;2023-04-29T02:54:13;15.60;63.40
62583;DHT22;48641;51.676;5.808;2023-04-29T02:56:39;15.60;63.40
62583;DHT22;48641;51.676;5.808;2023-04-29T02:59:04;15.60;63.40
62583;DHT22;48641;51.676;5.808;2023-04-29T03:01:30;15.60;63.40
62583;DHT22;48641;51.676;5.808;2023-04-29T03:03:56;15.60;63.40
62583;DHT22;48641;51.676;5.808;2023-04-29T03:06:22;15.60;63.40
62583;DHT22;48641;51.676;5.808;2023-04-29T03:08:48;15.60;63.40
62583;DHT22;48641;51.676;5.808;2023-04-29T03:11:13;15.60;63.40
62583;DHT22;48641;51.676;5.808;2023-04-29T03:13:39;15.50;63.40
62583;DHT22;48641;51.676;5.808;2023-04-29T03:16:05;15.60;63.40
62583;DHT22;48641;51.676;5.808;2023-04-29T03:18:31;15.60;63.40
62583;DHT22;48641;51.676;5.808;2023-04-29T03:20:56;15.60;63.40
62583;DHT22;48641;51.676;5.808;2023-04-29T03:23:22;15.60;63.40
62583;DHT22;48641;51.676;5.808;2023-04-29T03:25:48;15.60;63.40
62583;DHT22;48641;51.676;5.808;2023-04-29T03:28:14;15.60;63.40
62583;DHT22;48641;51.676;5.808;2023-04-29T03:30:40;15.60;63.40
62583;DHT22;48641;51.676;5.808;2023-04-29T03:33:05;15.60;63.40
62583;DHT22;48641;51.676;5.808;2023-04-29T03:35:31;15.60;63.40
62583;DHT22;48641;51.676;5.808;2023-04-29T03:37:56;15.60;63.30
62583;DHT22;48641;51.676;5.808;2023-04-29T03:40:22;15.60;63.40
62583;DHT22;48641;51.676;5.808;2023-04-29T03:42:48;15.60;63.40
62583;DHT22;48641;51.676;5.808;2023-04-29T03:45:13;15.60;63.40
62583;DHT22;48641;51.676;5.808;2023-04-29T03:47:39;15.60;63.40
62583;DHT22;48641;51.676;5.808;2023-04-29T03:50:06;15.60;63.40
62583;DHT22;48641;51.676;5.808;2023-04-29T03:52:32;15.50;63.40
62583;DHT22;48641;51.676;5.808;2023-04-29T03:55:01;15.50;63.40
62583;DHT22;48641;51.676;5.808;2023-04-29T03:57:27;15.50;64.30
62583;DHT22;48641;51.676;5.808;2023-04-29T03:59:52;15.50;63.30
62583;DHT22;48641;51.676;5.808;2023-04-29T04:02:20;15.50;63.30
62583;DHT22;48641;51.676;5.808;2023-04-29T04:04:46;15.50;63.30
62583;DHT22;48641;51.676;5.808;2023-04-29T04:07:12;15.60;63.30
62583;DHT22;48641;51.676;5.808;2023-04-29T04:09:37;15.50;63.30
62583;DHT22;48641;51.676;5.808;2023-04-29T04:12:03;15.50;63.40
62583;DHT22;48641;51.676;5.808;2023-04-29T04:14:29;15.50;63.30
62583;DHT22;48641;51.676;5.808;2023-04-29T04:16:54;15.50;63.40
62583;DHT22;48641;51.676;5.808;2023-04-29T04:19:20;15.50;63.30
62583;DHT22;48641;51.676;5.808;2023-04-29T04:21:46;15.50;63.30
62583;DHT22;48641;51.676;5.808;2023-04-29T04:24:11;15.50;63.40
62583;DHT22;48641;51.676;5.808;2023-04-29T04:26:37;15.50;63.40
62583;DHT22;48641;51.676;5.808;2023-04-29T04:29:02;15.50;63.30
62583;DHT22;48641;51.676;5.808;2023-04-29T04:31:28;15.50;63.40
62583;DHT22;48641;51.676;5.808;2023-04-29T04:33:54;15.50;63.40
62583;DHT22;48641;51.676;5.808;2023-04-29T04:36:20;15.50;63.40
62583;DHT22;48641;51.676;5.808;2023-04-29T04:38:46;15.50;63.30
62583;DHT22;48641;51.676;5.808;2023-04-29T04:41:11;15.50;63.40
62583;DHT22;48641;51.676;5.808;2023-04-29T04:43:37;15.50;63.40
62583;DHT22;48641;51.676;5.808;2023-04-29T04:46:14;15.50;63.40
62583;DHT22;48641;51.676;5.808;2023-04-29T04:48:40;15.50;63.30
62583;DHT22;48641;51.676;5.808;2023-04-29T04:51:10;15.50;63.30
62583;DHT22;48641;51.676;5.808;2023-04-29T04:53:36;15.50;63.40
62583;DHT22;48641;51.676;5.808;2023-04-29T04:56:02;15.50;63.40
62583;DHT22;48641;51.676;5.808;2023-04-29T04:58:27;15.50;63.40
62583;DHT22;48641;51.676;5.808;2023-04-29T05:00:55;15.50;63.40
62583;DHT22;48641;51.676;5.808;2023-04-29T05:03:20;15.50;63.40
62583;DHT22;48641;51.676;5.808;2023-04-29T05:05:55;15.50;63.30
62583;DHT22;48641;51.676;5.808;2023-04-29T05:08:21;15.50;63.40
62583;DHT22;48641;51.676;5.808;2023-04-29T05:10:47;15.50;63.40
62583;DHT22;48641;51.676;5.808;2023-04-29T05:13:12;15.50;63.40
62583;DHT22;48641;51.676;5.808;2023-04-29T05:15:38;15.50;63.40
62583;DHT22;48641;51.676;5.808;2023-04-29T05:18:06;15.50;63.40
62583;DHT22;48641;51.676;5.808;2023-04-29T05:20:32;15.50;63.40
62583;DHT22;48641;51.676;5.808;2023-04-29T05:22:57;15.50;63.40
62583;DHT22;48641;51.676;5.808;2023-04-29T05:25:23;15.50;63.40
62583;DHT22;48641;51.676;5.808;2023-04-29T05:27:48;15.50;63.40
62583;DHT22;48641;51.676;5.808;2023-04-29T05:30:14;15.50;63.40
62583;DHT22;48641;51.676;5.808;2023-04-29T05:32:40;15.50;63.40
62583;DHT22;48641;51.676;5.808;2023-04-29T05:35:06;15.50;63.40
62583;DHT22;48641;51.676;5.808;2023-04-29T05:37:32;15.50;63.40
62583;DHT22;48641;51.676;5.808;2023-04-29T05:39:57;15.50;63.40
62583;DHT22;48641;51.676;5.808;2023-04-29T05:42:23;15.50;63.40
62583;DHT22;48641;51.676;5.808;2023-04-29T05:44:49;15.50;63.40
62583;DHT22;48641;51.676;5.808;2023-04-29T05:47:15;15.50;63.40
62583;DHT22;48641;51.676;5.808;2023-04-29T05:49:41;15.50;63.40
62583;DHT22;48641;51.676;5.808;2023-04-29T05:52:07;15.50;63.40
62583;DHT22;48641;51.676;5.808;2023-04-29T05:54:33;15.50;63.40
62583;DHT22;48641;51.676;5.808;2023-04-29T05:56:59;15.50;63.40
62583;DHT22;48641;51.676;5.808;2023-04-29T05:59:30;15.40;63.40
62583;DHT22;48641;51.676;5.808;2023-04-29T06:01:59;15.40;63.40
62583;DHT22;48641;51.676;5.808;2023-04-29T06:04:25;15.40;63.40
62583;DHT22;48641;51.676;5.808;2023-04-29T07:04:03;15.40;64.00
62583;DHT22;48641;51.676;5.808;2023-04-29T07:06:29;15.40;63.80
62583;DHT22;48641;51.676;5.808;2023-04-29T07:08:55;15.40;64.00
62583;DHT22;48641;51.676;5.808;2023-04-29T07:11:20;15.40;64.10
62583;DHT22;48641;51.676;5.808;2023-04-29T07:13:48;15.40;64.00
62583;DHT22;48641;51.676;5.808;2023-04-29T07:16:17;15.40;64.00
62583;DHT22;48641;51.676;5.808;2023-04-29T07:18:44;15.40;63.90
62583;DHT22;48641;51.676;5.808;2023-04-29T07:21:10;15.40;64.40
62583;DHT22;48641;51.676;5.808;2023-04-29T07:23:35;15.40;64.40
62583;DHT22;48641;51.676;5.808;2023-04-29T07:26:15;15.40;64.20
62583;DHT22;48641;51.676;5.808;2023-04-29T07:28:42;15.40;64.10
62583;DHT22;48641;51.676;5.808;2023-04-29T07:31:08;15.40;64.10
62583;DHT22;48641;51.676;5.808;2023-04-29T07:33:34;15.50;64.30
62583;DHT22;48641;51.676;5.808;2023-04-29T07:36:01;15.50;64.30
62583;DHT22;48641;51.676;5.808;2023-04-29T07:38:26;15.50;64.20
62583;DHT22;48641;51.676;5.808;2023-04-29T07:40:54;15.50;64.10
62583;DHT22;48641;51.676;5.808;2023-04-29T07:43:19;15.50;64.10
62583;DHT22;48641;51.676;5.808;2023-04-29T07:45:46;15.50;64.10
62583;DHT22;48641;51.676;5.808;2023-04-29T07:48:12;15.50;64.00
62583;DHT22;48641;51.676;5.808;2023-04-29T07:50:37;15.50;63.90
62583;DHT22;48641;51.676;5.808;2023-04-29T07:53:03;15.50;64.00
62583;DHT22;48641;51.676;5.808;2023-04-29T07:55:29;15.50;64.10
62583;DHT22;48641;51.676;5.808;2023-04-29T07:57:56;15.50;64.30
62583;DHT22;48641;51.676;5.808;2023-04-29T08:00:22;15.50;64.40
62583;DHT22;48641;51.676;5.808;2023-04-29T08:02:54;15.50;64.80
62583;DHT22;48641;51.676;5.808;2023-04-29T08:05:20;15.50;64.80
62583;DHT22;48641;51.676;5.808;2023-04-29T08:07:47;15.50;64.60
62583;DHT22;48641;51.676;5.808;2023-04-29T08:10:13;15.50;64.50
62583;DHT22;48641;51.676;5.808;2023-04-29T08:12:39;15.50;64.40
62583;DHT22;48641;51.676;5.808;2023-04-29T08:15:05;15.50;64.40
62583;DHT22;48641;51.676;5.808;2023-04-29T08:17:31;15.50;64.10
62583;DHT22;48641;51.676;5.808;2023-04-29T08:19:57;15.50;63.90
62583;DHT22;48641;51.676;5.808;2023-04-29T08:22:22;15.50;63.80
62583;DHT22;48641;51.676;5.808;2023-04-29T08:24:48;15.50;63.60
62583;DHT22;48641;51.676;5.808;2023-04-29T08:27:14;15.50;63.40
62583;DHT22;48641;51.676;5.808;2023-04-29T08:29:40;15.50;63.20
62583;DHT22;48641;51.676;5.808;2023-04-29T08:32:06;15.50;63.20
62583;DHT22;48641;51.676;5.808;2023-04-29T08:34:32;15.40;63.10
62583;DHT22;48641;51.676;5.808;2023-04-29T08:36:58;15.40;63.20
62583;DHT22;48641;51.676;5.808;2023-04-29T08:39:24;15.40;63.90
62583;DHT22;48641;51.676;5.808;2023-04-29T08:41:50;15.40;64.40
62583;DHT22;48641;51.676;5.808;2023-04-29T08:44:19;15.40;64.20
62583;DHT22;48641;51.676;5.808;2023-04-29T08:46:46;15.40;64.10
62583;DHT22;48641;51.676;5.808;2023-04-29T08:49:12;15.40;64.00
62583;DHT22;48641;51.676;5.808;2023-04-29T08:51:38;15.40;64.00
62583;DHT22;48641;51.676;5.808;2023-04-29T08:54:04;15.50;64.00
62583;DHT22;48641;51.676;5.808;2023-04-29T08:56:31;15.50;63.90
62583;DHT22;48641;51.676;5.808;2023-04-29T08:58:58;15.50;64.10
62583;DHT22;48641;51.676;5.808;2023-04-29T09:01:28;15.50;64.10
62583;DHT22;48641;51.676;5.808;2023-04-29T09:06:32;15.50;64.00
62583;DHT22;48641;51.676;5.808;2023-04-29T09:08:59;15.50;63.90
62583;DHT22;48641;51.676;5.808;2023-04-29T09:11:26;15.50;63.80
62583;DHT22;48641;51.676;5.808;2023-04-29T09:13:58;15.50;63.70
62583;DHT22;48641;51.676;5.808;2023-04-29T09:16:24;15.50;64.50
62583;DHT22;48641;51.676;5.808;2023-04-29T09:18:51;15.50;63.60
62583;DHT22;48641;51.676;5.808;2023-04-29T09:21:19;15.50;63.50
62583;DHT22;48641;51.676;5.808;2023-04-29T09:23:45;15.50;63.50
62583;DHT22;48641;51.676;5.808;2023-04-29T09:26:11;15.50;63.50
62583;DHT22;48641;51.676;5.808;2023-04-29T09:28:37;15.50;63.40
62583;DHT22;48641;51.676;5.808;2023-04-29T09:31:05;15.40;63.20
62583;DHT22;48641;51.676;5.808;2023-04-29T09:33:49;15.50;63.20
62583;DHT22;48641;51.676;5.808;2023-04-29T09:36:34;15.50;63.00
62583;DHT22;48641;51.676;5.808;2023-04-29T09:39:01;15.50;63.00
62583;DHT22;48641;51.676;5.808;2023-04-29T09:41:27;15.50;63.10
62583;DHT22;48641;51.676;5.808;2023-04-29T09:44:03;15.40;63.00
62583;DHT22;48641;51.676;5.808;2023-04-29T09:46:33;15.50;63.10
62583;DHT22;48641;51.676;5.808;2023-04-29T09:49:01;15.40;63.10
62583;DHT22;48641;51.676;5.808;2023-04-29T09:51:27;15.40;63.10
62583;DHT22;48641;51.676;5.808;2023-04-29T09:53:53;15.40;63.10
62583;DHT22;48641;51.676;5.808;2023-04-29T09:56:18;15.40;63.00
62583;DHT22;48641;51.676;5.808;2023-04-29T09:58:44;15.40;62.90
62583;DHT22;48641;51.676;5.808;2023-04-29T10:01:10;15.50;62.90
62583;DHT22;48641;51.676;5.808;2023-04-29T10:03:38;15.40;62.80
62583;DHT22;48641;51.676;5.808;2023-04-29T10:06:05;15.40;62.80
62583;DHT22;48641;51.676;5.808;2023-04-29T10:08:31;15.50;62.80
62583;DHT22;48641;51.676;5.808;2023-04-29T10:11:02;15.50;62.60
62583;DHT22;48641;51.676;5.808;2023-04-29T10:13:29;15.50;62.60
62583;DHT22;48641;51.676;5.808;2023-04-29T10:16:15;15.50;62.60
62583;DHT22;48641;51.676;5.808;2023-04-29T10:18:48;15.50;62.40
62583;DHT22;48641;51.676;5.808;2023-04-29T10:21:17;15.40;62.50
62583;DHT22;48641;51.676;5.808;2023-04-29T10:23:47;15.40;62.40
62583;DHT22;48641;51.676;5.808;2023-04-29T10:26:14;15.40;62.30
62583;DHT22;48641;51.676;5.808;2023-04-29T10:28:41;15.40;62.50
62583;DHT22;48641;51.676;5.808;2023-04-29T10:31:09;15.40;62.40
62583;DHT22;48641;51.676;5.808;2023-04-29T10:33:37;15.40;62.40
62583;DHT22;48641;51.676;5.808;2023-04-29T10:36:04;15.40;62.30
62583;DHT22;48641;51.676;5.808;2023-04-29T10:38:40;15.40;62.20
62583;DHT22;48641;51.676;5.808;2023-04-29T10:41:16;15.50;62.20
62583;DHT22;48641;51.676;5.808;2023-04-29T10:43:43;15.50;62.30
62583;DHT22;48641;51.676;5.808;2023-04-29T10:48:42;15.50;62.20
62583;DHT22;48641;51.676;5.808;2023-04-29T10:51:08;15.50;62.20
62583;DHT22;48641;51.676;5.808;2023-04-29T10:53:33;15.50;62.20
62583;DHT22;48641;51.676;5.808;2023-04-29T10:56:06;15.40;62.10
62583;DHT22;48641;51.676;5.808;2023-04-29T11:01:05;15.50;62.20
62583;DHT22;48641;51.676;5.808;2023-04-29T11:03:52;15.50;62.20
62583;DHT22;48641;51.676;5.808;2023-04-29T11:06:22;15.50;62.30
62583;DHT22;48641;51.676;5.808;2023-04-29T11:09:02;15.50;62.30
62583;DHT22;48641;51.676;5.808;2023-04-29T11:14:08;15.50;62.30
62583;DHT22;48641;51.676;5.808;2023-04-29T11:16:35;15.40;62.30
62583;DHT22;48641;51.676;5.808;2023-04-29T11:19:06;15.40;62.30
62583;DHT22;48641;51.676;5.808;2023-04-29T11:21:34;15.40;62.30
62583;DHT22;48641;51.676;5.808;2023-04-29T11:24:00;15.40;62.30
62583;DHT22;48641;51.676;5.808;2023-04-29T11:26:26;15.50;62.30
62583;DHT22;48641;51.676;5.808;2023-04-29T11:28:53;15.40;62.20
62583;DHT22;48641;51.676;5.808;2023-04-29T11:31:19;15.50;62.20
62583;DHT22;48641;51.676;5.808;2023-04-29T11:33:46;15.50;62.20
62583;DHT22;48641;51.676;5.808;2023-04-29T11:36:11;15.50;62.10
62583;DHT22;48641;51.676;5.808;2023-04-29T11:38:39;15.50;62.00
62583;DHT22;48641;51.676;5.808;2023-04-29T11:41:05;15.50;62.00
62583;DHT22;48641;51.676;5.808;2023-04-29T11:43:31;15.50;61.90
62583;DHT22;48641;51.676;5.808;2023-04-29T11:45:56;15.50;61.80
62583;DHT22;48641;51.676;5.808;2023-04-29T11:48:24;15.50;61.80
62583;DHT22;48641;51.676;5.808;2023-04-29T11:50:55;15.50;61.80
62583;DHT22;48641;51.676;5.808;2023-04-29T11:53:24;15.40;61.70
62583;DHT22;48641;51.676;5.808;2023-04-29T11:55:53;15.50;61.80
62583;DHT22;48641;51.676;5.808;2023-04-29T11:58:19;15.50;61.80
62583;DHT22;48641;51.676;5.808;2023-04-29T12:00:46;15.40;61.80
62583;DHT22;48641;51.676;5.808;2023-04-29T12:03:13;15.40;62.10
62583;DHT22;48641;51.676;5.808;2023-04-29T12:05:54;15.40;62.20
62583;DHT22;48641;51.676;5.808;2023-04-29T12:08:25;15.40;62.20
62583;DHT22;48641;51.676;5.808;2023-04-29T12:10:53;15.40;61.90
62583;DHT22;48641;51.676;5.808;2023-04-29T12:13:19;15.40;61.90
62583;DHT22;48641;51.676;5.808;2023-04-29T12:15:51;15.40;61.70
62583;DHT22;48641;51.676;5.808;2023-04-29T12:18:18;15.40;61.30
62583;DHT22;48641;51.676;5.808;2023-04-29T12:20:44;15.40;61.10
62583;DHT22;48641;51.676;5.808;2023-04-29T12:23:16;15.40;61.30
62583;DHT22;48641;51.676;5.808;2023-04-29T12:25:51;15.40;61.20
62583;DHT22;48641;51.676;5.808;2023-04-29T12:28:17;15.40;61.20
62583;DHT22;48641;51.676;5.808;2023-04-29T12:30:48;15.40;61.20
62583;DHT22;48641;51.676;5.808;2023-04-29T12:33:21;15.40;61.10
62583;DHT22;48641;51.676;5.808;2023-04-29T12:35:48;15.40;61.20
62583;DHT22;48641;51.676;5.808;2023-04-29T12:38:28;15.40;61.00
62583;DHT22;48641;51.676;5.808;2023-04-29T12:40:55;15.40;61.00
62583;DHT22;48641;51.676;5.808;2023-04-29T12:43:27;15.40;61.20
62583;DHT22;48641;51.676;5.808;2023-04-29T12:45:59;15.40;61.30
62583;DHT22;48641;51.676;5.808;2023-04-29T12:48:32;15.50;61.40
62583;DHT22;48641;51.676;5.808;2023-04-29T12:50:57;15.50;61.10
62583;DHT22;48641;51.676;5.808;2023-04-29T12:53:27;15.50;61.00
62583;DHT22;48641;51.676;5.808;2023-04-29T12:55:53;15.50;60.90
62583;DHT22;48641;51.676;5.808;2023-04-29T12:58:19;15.50;60.90
62583;DHT22;48641;51.676;5.808;2023-04-29T13:00:44;15.50;60.90
62583;DHT22;48641;51.676;5.808;2023-04-29T13:03:10;15.50;61.00
62583;DHT22;48641;51.676;5.808;2023-04-29T13:05:36;15.50;60.40
62583;DHT22;48641;51.676;5.808;2023-04-29T13:08:02;15.50;60.10
62583;DHT22;48641;51.676;5.808;2023-04-29T13:10:29;15.50;59.60
62583;DHT22;48641;51.676;5.808;2023-04-29T13:12:55;15.50;59.30
62583;DHT22;48641;51.676;5.808;2023-04-29T13:15:21;15.50;59.30
62583;DHT22;48641;51.676;5.808;2023-04-29T13:17:47;15.50;59.50
62583;DHT22;48641;51.676;5.808;2023-04-29T13:20:13;15.50;59.60
62583;DHT22;48641;51.676;5.808;2023-04-29T13:22:40;15.50;59.50
62583;DHT22;48641;51.676;5.808;2023-04-29T13:25:06;15.50;59.00
62583;DHT22;48641;51.676;5.808;2023-04-29T13:27:32;15.50;58.90
62583;DHT22;48641;51.676;5.808;2023-04-29T13:29:58;15.50;59.70
62583;DHT22;48641;51.676;5.808;2023-04-29T13:32:23;15.50;58.80
62583;DHT22;48641;51.676;5.808;2023-04-29T13:34:49;15.50;59.10
62583;DHT22;48641;51.676;5.808;2023-04-29T13:37:15;15.50;59.30
62583;DHT22;48641;51.676;5.808;2023-04-29T13:39:41;15.50;59.40
62583;DHT22;48641;51.676;5.808;2023-04-29T13:42:07;15.60;59.50
62583;DHT22;48641;51.676;5.808;2023-04-29T13:44:32;15.60;59.50
62583;DHT22;48641;51.676;5.808;2023-04-29T13:46:59;15.60;59.60
62583;DHT22;48641;51.676;5.808;2023-04-29T13:49:25;15.60;59.70
62583;DHT22;48641;51.676;5.808;2023-04-29T13:51:51;15.60;59.80
62583;DHT22;48641;51.676;5.808;2023-04-29T13:54:17;15.60;59.90
62583;DHT22;48641;51.676;5.808;2023-04-29T13:56:48;15.60;60.00
62583;DHT22;48641;51.676;5.808;2023-04-29T13:59:13;15.60;60.10
62583;DHT22;48641;51.676;5.808;2023-04-29T14:01:39;15.70;60.20
62583;DHT22;48641;51.676;5.808;2023-04-29T14:04:05;15.70;60.20
62583;DHT22;48641;51.676;5.808;2023-04-29T14:06:30;15.70;60.20
62583;DHT22;48641;51.676;5.808;2023-04-29T14:08:57;15.70;60.20
62583;DHT22;48641;51.676;5.808;2023-04-29T14:11:23;15.70;60.40
62583;DHT22;48641;51.676;5.808;2023-04-29T14:13:48;15.70;60.40
62583;DHT22;48641;51.676;5.808;2023-04-29T14:16:14;15.70;60.40
62583;DHT22;48641;51.676;5.808;2023-04-29T14:18:40;15.70;60.40
62583;DHT22;48641;51.676;5.808;2023-04-29T14:21:05;15.70;60.50
62583;DHT22;48641;51.676;5.808;2023-04-29T14:23:31;15.70;60.50
62583;DHT22;48641;51.676;5.808;2023-04-29T14:25:56;15.70;60.50
62583;DHT22;48641;51.676;5.808;2023-04-29T14:28:22;15.80;60.60
62583;DHT22;48641;51.676;5.808;2023-04-29T14:30:47;15.70;60.60
62583;DHT22;48641;51.676;5.808;2023-04-29T14:33:13;15.80;60.70
62583;DHT22;48641;51.676;5.808;2023-04-29T14:35:39;15.70;60.60
62583;DHT22;48641;51.676;5.808;2023-04-29T14:38:05;15.80;60.70
62583;DHT22;48641;51.676;5.808;2023-04-29T14:40:30;15.80;60.70
62583;DHT22;48641;51.676;5.808;2023-04-29T14:42:56;15.80;60.80
62583;DHT22;48641;51.676;5.808;2023-04-29T14:45:22;15.80;60.80
62583;DHT22;48641;51.676;5.808;2023-04-29T14:47:47;15.80;60.90
62583;DHT22;48641;51.676;5.808;2023-04-29T14:50:13;15.80;60.90
62583;DHT22;48641;51.676;5.808;2023-04-29T14:52:38;15.80;61.10
62583;DHT22;48641;51.676;5.808;2023-04-29T14:55:04;15.80;61.20
62583;DHT22;48641;51.676;5.808;2023-04-29T14:57:30;15.80;61.10
62583;DHT22;48641;51.676;5.808;2023-04-29T14:59:55;15.80;61.10
62583;DHT22;48641;51.676;5.808;2023-04-29T15:02:21;15.80;61.10
62583;DHT22;48641;51.676;5.808;2023-04-29T15:04:46;15.80;61.10
62583;DHT22;48641;51.676;5.808;2023-04-29T15:07:13;15.90;61.20
62583;DHT22;48641;51.676;5.808;2023-04-29T15:09:40;15.90;61.20
62583;DHT22;48641;51.676;5.808;2023-04-29T15:12:05;15.90;61.20
62583;DHT22;48641;51.676;5.808;2023-04-29T15:14:31;15.90;61.30
62583;DHT22;48641;51.676;5.808;2023-04-29T15:16:57;15.90;61.20
62583;DHT22;48641;51.676;5.808;2023-04-29T15:19:23;15.90;61.20
62583;DHT22;48641;51.676;5.808;2023-04-29T15:21:52;15.90;61.20
62583;DHT22;48641;51.676;5.808;2023-04-29T15:24:18;15.90;61.20
62583;DHT22;48641;51.676;5.808;2023-04-29T15:26:44;15.90;61.30
62583;DHT22;48641;51.676;5.808;2023-04-29T15:29:10;15.90;61.30
62583;DHT22;48641;51.676;5.808;2023-04-29T15:31:36;15.90;61.30
62583;DHT22;48641;51.676;5.808;2023-04-29T15:34:02;15.90;61.30
62583;DHT22;48641;51.676;5.808;2023-04-29T15:36:30;15.90;61.30
62583;DHT22;48641;51.676;5.808;2023-04-29T15:38:57;15.90;61.30
62583;DHT22;48641;51.676;5.808;2023-04-29T15:41:23;15.90;61.30
62583;DHT22;48641;51.676;5.808;2023-04-29T15:43:50;15.90;61.30
62583;DHT22;48641;51.676;5.808;2023-04-29T15:46:17;16.00;61.40
62583;DHT22;48641;51.676;5.808;2023-04-29T15:48:42;16.00;61.40
62583;DHT22;48641;51.676;5.808;2023-04-29T15:51:08;16.00;61.50
62583;DHT22;48641;51.676;5.808;2023-04-29T15:53:34;16.00;61.50
62583;DHT22;48641;51.676;5.808;2023-04-29T15:56:00;16.00;62.30
62583;DHT22;48641;51.676;5.808;2023-04-29T15:58:28;16.00;62.30
62583;DHT22;48641;51.676;5.808;2023-04-29T16:00:54;16.00;62.10
62583;DHT22;48641;51.676;5.808;2023-04-29T16:03:19;16.00;62.00
62583;DHT22;48641;51.676;5.808;2023-04-29T16:05:45;16.00;62.00
62583;DHT22;48641;51.676;5.808;2023-04-29T16:08:11;16.00;61.90
62583;DHT22;48641;51.676;5.808;2023-04-29T16:10:36;16.00;61.90
62583;DHT22;48641;51.676;5.808;2023-04-29T16:13:02;15.90;61.90
62583;DHT22;48641;51.676;5.808;2023-04-29T16:15:29;16.00;62.00
62583;DHT22;48641;51.676;5.808;2023-04-29T16:17:54;16.00;61.90
62583;DHT22;48641;51.676;5.808;2023-04-29T16:20:20;16.00;61.90
62583;DHT22;48641;51.676;5.808;2023-04-29T16:22:46;16.00;61.90
62583;DHT22;48641;51.676;5.808;2023-04-29T16:25:11;16.00;61.90
62583;DHT22;48641;51.676;5.808;2023-04-29T16:27:37;16.00;61.90
62583;DHT22;48641;51.676;5.808;2023-04-29T16:30:03;16.00;61.90
62583;DHT22;48641;51.676;5.808;2023-04-29T16:32:29;16.00;62.00
62583;DHT22;48641;51.676;5.808;2023-04-29T16:34:55;16.00;62.00
62583;DHT22;48641;51.676;5.808;2023-04-29T16:37:21;16.00;62.10
62583;DHT22;48641;51.676;5.808;2023-04-29T16:39:47;16.00;62.00
62583;DHT22;48641;51.676;5.808;2023-04-29T16:42:13;16.00;62.10
62583;DHT22;48641;51.676;5.808;2023-04-29T16:44:38;16.00;62.00
62583;DHT22;48641;51.676;5.808;2023-04-29T16:47:04;16.00;62.00